Time;durP1;ratioP1;P1;durP2;ratioP2;P2;SDS_P1;SDS_P2;PMS_P1;PMS_P2;Temp;Humidity;BMP_temperature;BMP_pressure;BME280_temperature;BME280_humidity;BME280_pressure;Samples;Min_cycle;Max_cycle;Signal;HPM_P1;HPM_P2
2021/10/20 00:00:52;;;;;;;10.27;9.13;;;8.30;99.90;;;;;;4999493;28;20181;-80
2021/10/20 00:03:17;;;;;;;10.57;9.57;;;8.30;99.90;;;;;;4998621;28;20653;-80
2021/10/20 00:05:43;;;;;;;10.13;9.07;;;8.30;99.90;;;;;;4997842;28;20187;-80
2021/10/20 00:08:09;;;;;;;9.53;8.50;;;8.30;99.90;;;;;;4997190;28;20590;-80
2021/10/20 00:10:36;;;;;;;10.60;9.50;;;8.20;99.90;;;;;;4998542;28;20183;-80
2021/10/20 00:13:03;;;;;;;9.90;9.00;;;8.20;99.90;;;;;;4998468;28;20172;-80
2021/10/20 00:15:28;;;;;;;10.47;9.37;;;8.20;99.90;;;;;;4998084;28;20222;-80
2021/10/20 00:17:54;;;;;;;9.83;8.93;;;8.20;99.90;;;;;;4997798;28;20622;-80
2021/10/20 00:20:23;;;;;;;10.83;9.40;;;8.10;99.90;;;;;;4998205;28;20196;-80
2021/10/20 00:22:51;;;;;;;15.73;10.83;;;8.20;99.90;;;;;;4995548;28;20178;-80
2021/10/20 00:25:17;;;;;;;13.33;10.00;;;8.00;99.90;;;;;;4997023;28;20570;-80
2021/10/20 00:27:44;;;;;;;9.70;8.70;;;8.00;99.90;;;;;;4996909;28;20180;-79
2021/10/20 00:30:10;;;;;;;15.50;9.30;;;7.90;99.90;;;;;;4998154;28;20172;-80
2021/10/20 00:32:36;;;;;;;14.20;11.10;;;7.90;99.90;;;;;;4997933;28;20195;-80
2021/10/20 00:35:04;;;;;;;13.77;10.40;;;7.90;99.90;;;;;;4996931;28;20762;-80
2021/10/20 00:37:30;;;;;;;13.83;9.50;;;7.90;99.90;;;;;;4996541;28;20282;-80
2021/10/20 00:39:55;;;;;;;16.73;10.50;;;7.90;99.90;;;;;;4996218;28;20230;-79
2021/10/20 00:42:23;;;;;;;11.70;8.97;;;7.90;99.90;;;;;;4999906;28;20239;-80
2021/10/20 00:44:52;;;;;;;17.53;10.67;;;7.90;99.90;;;;;;4997195;28;20192;-80
2021/10/20 00:47:18;;;;;;;11.20;8.97;;;7.80;99.90;;;;;;4996953;28;20231;-80
2021/10/20 00:49:44;;;;;;;9.67;7.73;;;7.90;99.90;;;;;;4997716;28;20168;-80
2021/10/20 00:52:11;;;;;;;8.73;7.93;;;7.80;99.90;;;;;;4996792;28;20255;-80
2021/10/20 00:54:38;;;;;;;9.97;8.73;;;7.80;99.90;;;;;;5000050;28;20196;-80
2021/10/20 00:57:05;;;;;;;9.00;8.20;;;7.70;99.90;;;;;;4996981;28;20235;-79
2021/10/20 00:59:32;;;;;;;8.23;7.37;;;7.80;99.90;;;;;;4998106;28;20185;-80
2021/10/20 01:01:58;;;;;;;9.10;7.83;;;7.80;99.90;;;;;;4996191;28;20219;-80
2021/10/20 01:04:23;;;;;;;8.73;7.93;;;7.80;99.90;;;;;;4996289;28;20203;-80
2021/10/20 01:06:51;;;;;;;8.27;7.53;;;7.70;99.90;;;;;;4997421;28;20178;-79
2021/10/20 01:09:16;;;;;;;9.13;7.70;;;7.80;99.90;;;;;;4997920;28;20203;-79
2021/10/20 01:11:42;;;;;;;8.10;7.40;;;7.70;99.90;;;;;;4997362;28;20172;-79
2021/10/20 01:14:08;;;;;;;7.97;7.17;;;7.70;99.90;;;;;;4996149;28;20282;-79
2021/10/20 01:16:34;;;;;;;7.80;7.10;;;7.80;99.90;;;;;;4996877;28;20255;-79
2021/10/20 01:18:59;;;;;;;8.60;7.80;;;7.70;99.90;;;;;;5001635;28;20614;-79
2021/10/20 01:21:25;;;;;;;8.10;7.30;;;7.70;99.90;;;;;;5001585;28;20205;-79
2021/10/20 01:23:51;;;;;;;8.50;7.33;;;7.70;99.90;;;;;;5001172;28;20234;-79
2021/10/20 01:26:17;;;;;;;8.57;7.77;;;7.60;99.90;;;;;;4999580;28;20183;-79
2021/10/20 01:28:44;;;;;;;8.03;7.43;;;7.50;99.90;;;;;;5000842;28;20192;-79
2021/10/20 01:31:10;;;;;;;8.30;7.50;;;7.50;99.90;;;;;;5000364;28;20187;-79
2021/10/20 01:33:36;;;;;;;8.57;7.50;;;7.50;99.90;;;;;;5000916;28;20224;-80
2021/10/20 01:36:02;;;;;;;8.30;7.60;;;7.50;99.90;;;;;;5000021;28;20186;-79
2021/10/20 01:38:28;;;;;;;9.43;8.50;;;7.50;99.90;;;;;;5000944;28;20208;-79
2021/10/20 01:40:54;;;;;;;9.20;8.40;;;7.40;99.90;;;;;;5001125;28;20571;-79
2021/10/20 01:43:20;;;;;;;9.37;8.57;;;7.40;99.90;;;;;;4999740;28;20204;-78
2021/10/20 01:45:46;;;;;;;10.10;9.10;;;7.40;99.90;;;;;;5000873;28;20176;-79
2021/10/20 01:48:12;;;;;;;18.30;16.40;;;;;;;;;;5000496;28;20665;-79
2021/10/20 01:50:37;;;;;;;11.77;10.67;;;7.30;99.90;;;;;;5000701;28;20721;-79
2021/10/20 01:53:03;;;;;;;13.07;11.77;;;7.20;99.90;;;;;;5001270;28;20175;-79
2021/10/20 01:55:29;;;;;;;13.23;11.90;;;7.20;99.90;;;;;;5001046;28;20557;-79
2021/10/20 01:57:55;;;;;;;14.97;11.10;;;7.20;99.90;;;;;;5000305;28;20207;-79
2021/10/20 02:00:21;;;;;;;10.50;9.40;;;7.20;99.90;;;;;;5000802;28;20180;-79
2021/10/20 02:02:46;;;;;;;9.77;8.77;;;7.20;99.90;;;;;;5000506;28;20176;-79
2021/10/20 02:05:14;;;;;;;11.87;8.73;;;7.20;99.90;;;;;;5000441;28;20541;-79
2021/10/20 02:07:41;;;;;;;9.37;7.83;;;7.10;99.90;;;;;;5000648;28;20191;-79
2021/10/20 02:10:13;;;;;;;9.07;8.17;;;7.10;99.90;;;;;;5001249;28;20725;-79
2021/10/20 02:12:39;;;;;;;9.33;7.97;;;7.20;99.90;;;;;;5006740;28;20184;-79
2021/10/20 02:15:06;;;;;;;7.27;6.57;;;7.30;99.90;;;;;;5004136;28;20206;-79
2021/10/20 02:17:32;;;;;;;8.03;7.33;;;7.10;99.90;;;;;;5007227;28;20226;-79
2021/10/20 02:19:57;;;;;;;7.33;6.63;;;7.10;99.90;;;;;;4991293;28;20650;-79
2021/10/20 02:22:23;;;;;;;7.40;6.70;;;7.20;99.90;;;;;;5001426;28;20180;-79
2021/10/20 02:24:49;;;;;;;6.90;6.30;;;7.00;99.90;;;;;;5000595;28;20203;-79
2021/10/20 02:27:15;;;;;;;7.40;6.70;;;7.10;99.90;;;;;;5001505;28;20180;-79
2021/10/20 02:29:41;;;;;;;7.20;6.60;;;7.10;99.90;;;;;;5001310;28;20179;-79
2021/10/20 02:32:07;;;;;;;6.83;5.87;;;7.10;99.90;;;;;;5000737;28;20172;-80
2021/10/20 02:34:34;;;;;;;6.90;6.30;;;7.00;99.90;;;;;;5000633;28;20238;-80
2021/10/20 02:36:59;;;;;;;7.47;6.20;;;7.00;99.90;;;;;;5000208;28;20687;-81
2021/10/20 02:39:25;;;;;;;7.40;6.70;;;6.80;99.90;;;;;;5001422;28;20177;-79
2021/10/20 02:41:51;;;;;;;7.10;6.40;;;6.90;99.90;;;;;;5001200;28;20172;-79
2021/10/20 02:44:16;;;;;;;6.30;5.77;;;6.80;99.90;;;;;;5000513;28;20196;-79
2021/10/20 02:46:42;;;;;;;9.17;6.43;;;6.80;99.90;;;;;;5000931;28;20183;-79
2021/10/20 02:49:08;;;;;;;6.43;5.83;;;6.80;99.90;;;;;;5000908;28;20626;-79
2021/10/20 02:51:34;;;;;;;9.90;5.93;;;6.80;99.90;;;;;;5000727;28;20199;-79
2021/10/20 02:54:00;;;;;;;7.00;6.30;;;6.80;99.90;;;;;;5002045;28;20230;-80
2021/10/20 02:56:27;;;;;;;7.67;7.07;;;6.80;99.90;;;;;;5000809;28;20179;-80
2021/10/20 02:58:53;;;;;;;7.83;7.03;;;6.80;99.90;;;;;;5000568;28;20250;-80
2021/10/20 03:01:19;;;;;;;7.47;6.77;;;6.90;99.90;;;;;;4999048;28;20171;-80
2021/10/20 03:03:45;;;;;;;8.17;7.47;;;6.80;99.90;;;;;;5000617;28;20782;-80
2021/10/20 03:06:13;;;;;;;8.30;6.60;;;6.90;99.90;;;;;;5000938;28;20263;-80
2021/10/20 03:08:39;;;;;;;6.50;5.90;;;6.90;99.90;;;;;;4999326;28;20705;-80
2021/10/20 03:11:04;;;;;;;6.70;6.10;;;6.80;99.90;;;;;;4999297;28;20204;-80
2021/10/20 03:13:30;;;;;;;7.37;6.67;;;6.70;99.90;;;;;;4999828;28;20195;-80
2021/10/20 03:15:55;;;;;;;6.47;5.97;;;6.70;99.90;;;;;;5000416;28;20229;-80
2021/10/20 03:18:21;;;;;;;5.83;5.33;;;6.70;99.90;;;;;;4999068;28;20642;-79
2021/10/20 03:20:47;;;;;;;6.27;5.77;;;6.70;99.90;;;;;;4999877;28;20258;-80
2021/10/20 03:23:13;;;;;;;6.27;5.67;;;6.60;99.90;;;;;;4998671;28;20204;-79
2021/10/20 03:25:38;;;;;;;5.97;5.47;;;6.60;99.90;;;;;;4998957;28;20175;-80
2021/10/20 03:28:04;;;;;;;7.20;6.60;;;6.60;99.90;;;;;;4998509;28;20233;-80
2021/10/20 03:30:30;;;;;;;8.27;7.20;;;6.70;99.90;;;;;;4999332;28;20230;-80
2021/10/20 03:32:55;;;;;;;7.37;6.67;;;6.70;99.90;;;;;;4998949;28;20183;-80
2021/10/20 03:35:21;;;;;;;10.40;7.93;;;6.70;99.90;;;;;;4998637;28;20282;-79
2021/10/20 03:37:47;;;;;;;10.00;8.70;;;6.80;99.90;;;;;;5000241;28;20198;-79
2021/10/20 03:40:13;;;;;;;10.07;8.87;;;6.70;99.90;;;;;;4995413;28;20179;-79
2021/10/20 03:42:40;;;;;;;9.77;8.77;;;6.70;99.90;;;;;;4998422;28;20163;-80
2021/10/20 03:45:06;;;;;;;9.17;7.90;;;6.70;99.90;;;;;;4996541;28;20195;-80
2021/10/20 03:47:33;;;;;;;13.27;7.30;;;6.80;99.90;;;;;;4998548;28;20179;-80
2021/10/20 03:49:58;;;;;;;16.97;9.00;;;6.70;99.90;;;;;;4996291;28;20186;-79
2021/10/20 03:52:24;;;;;;;8.63;7.70;;;6.60;99.90;;;;;;4998257;28;20538;-80
2021/10/20 03:54:50;;;;;;;8.50;7.50;;;6.50;99.90;;;;;;4996270;28;20196;-80
2021/10/20 03:57:16;;;;;;;10.63;7.97;;;6.50;99.90;;;;;;4997078;28;20274;-79
2021/10/20 03:59:43;;;;;;;9.93;8.27;;;6.50;99.90;;;;;;4995611;28;20643;-80
2021/10/20 04:02:09;;;;;;;9.23;7.87;;;6.50;99.90;;;;;;5004322;28;20175;-80
2021/10/20 04:04:35;;;;;;;8.17;7.37;;;6.60;99.90;;;;;;5003117;28;20242;-80
2021/10/20 04:07:01;;;;;;;8.57;7.70;;;6.60;99.90;;;;;;4996681;28;20612;-80
2021/10/20 04:09:26;;;;;;;8.90;8.00;;;6.60;99.90;;;;;;4993295;28;20178;-80
2021/10/20 04:11:52;;;;;;;9.50;8.27;;;6.60;99.90;;;;;;4996511;28;20202;-80
2021/10/20 04:14:18;;;;;;;10.80;8.53;;;6.60;99.90;;;;;;4996496;28;20249;-80
2021/10/20 04:16:43;;;;;;;9.53;7.63;;;6.60;99.90;;;;;;4995568;28;20170;-80
2021/10/20 04:19:09;;;;;;;9.97;7.77;;;6.50;99.90;;;;;;4997669;28;20206;-80
2021/10/20 04:21:35;;;;;;;8.43;7.63;;;6.50;99.90;;;;;;4997743;28;20183;-80
2021/10/20 04:24:00;;;;;;;10.43;8.23;;;6.50;99.90;;;;;;4997026;28;20214;-80
2021/10/20 04:26:26;;;;;;;13.03;8.73;;;6.50;99.90;;;;;;4996059;28;20180;-80
2021/10/20 04:28:52;;;;;;;15.03;9.43;;;6.50;99.90;;;;;;4995992;28;20187;-80
2021/10/20 04:31:17;;;;;;;23.30;9.30;;;6.60;99.90;;;;;;4998185;28;20194;-81
2021/10/20 04:33:43;;;;;;;27.03;9.03;;;6.50;99.90;;;;;;4997124;28;20304;-80
2021/10/20 04:36:09;;;;;;;12.47;8.97;;;6.40;99.90;;;;;;4996293;28;20214;-80
2021/10/20 04:38:34;;;;;;;12.03;8.93;;;6.50;99.90;;;;;;4994833;28;20206;-80
2021/10/20 04:41:00;;;;;;;10.43;9.33;;;6.40;99.90;;;;;;4995411;28;20190;-79
2021/10/20 04:43:26;;;;;;;10.87;8.77;;;6.50;99.90;;;;;;4997001;28;20214;-79
2021/10/20 04:45:53;;;;;;;10.40;8.27;;;6.50;99.90;;;;;;4996809;28;20273;-80
2021/10/20 04:48:19;;;;;;;9.00;8.20;;;6.50;99.90;;;;;;4997755;28;20644;-78
2021/10/20 04:50:45;;;;;;;10.37;8.57;;;6.50;99.90;;;;;;4995702;28;20258;-80
2021/10/20 04:53:11;;;;;;;15.27;8.47;;;6.50;99.90;;;;;;4996179;28;20883;-80
2021/10/20 04:55:36;;;;;;;21.17;10.23;;;6.50;99.90;;;;;;4996456;28;20230;-80
2021/10/20 04:58:07;;;;;;;13.07;10.00;;;6.50;99.90;;;;;;4996595;28;20196;-80
2021/10/20 05:00:34;;;;;;;11.03;9.73;;;6.40;99.90;;;;;;4995804;28;20238;-80
2021/10/20 05:03:00;;;;;;;11.03;9.93;;;6.40;99.90;;;;;;4996701;28;20174;-80
2021/10/20 05:05:27;;;;;;;9.33;8.33;;;6.40;99.90;;;;;;4997941;28;20233;-80
2021/10/20 05:07:54;;;;;;;8.43;7.67;;;6.50;99.90;;;;;;4997721;28;20185;-80
2021/10/20 05:10:22;;;;;;;8.30;7.60;;;6.50;99.90;;;;;;4997357;28;20183;-80
2021/10/20 05:12:48;;;;;;;8.90;8.10;;;6.50;99.90;;;;;;4997447;28;20520;-80
2021/10/20 05:15:14;;;;;;;9.73;8.20;;;6.40;99.90;;;;;;4997076;28;20191;-80
2021/10/20 05:17:41;;;;;;;16.80;9.30;;;6.50;99.90;;;;;;4996851;28;20213;-80
2021/10/20 05:20:08;;;;;;;11.10;9.83;;;6.40;99.90;;;;;;4997339;28;20203;-80
2021/10/20 05:22:38;;;;;;;13.80;9.17;;;6.40;99.90;;;;;;4995527;28;20224;-80
2021/10/20 05:25:06;;;;;;;12.40;9.43;;;6.50;99.90;;;;;;4995945;28;20219;-80
2021/10/20 05:27:32;;;;;;;11.07;9.23;;;6.40;99.90;;;;;;4996686;28;20235;-80
2021/10/20 05:29:58;;;;;;;10.20;8.63;;;6.40;99.90;;;;;;4995664;28;20175;-80
2021/10/20 05:32:28;;;;;;;11.83;8.83;;;6.30;99.90;;;;;;4995542;28;20232;-80
2021/10/20 05:34:54;;;;;;;15.03;10.20;;;6.30;99.90;;;;;;4996117;28;20258;-80
2021/10/20 05:37:20;;;;;;;10.67;9.43;;;6.40;99.90;;;;;;4996638;28;20207;-80
2021/10/20 05:39:48;;;;;;;18.70;10.30;;;6.40;99.90;;;;;;4996304;28;20175;-80
2021/10/20 05:42:14;;;;;;;20.47;12.70;;;6.40;99.90;;;;;;4996560;28;20319;-80
2021/10/20 05:44:40;;;;;;;20.60;13.63;;;6.40;99.90;;;;;;4996245;28;20204;-80
2021/10/20 05:47:06;;;;;;;22.33;12.73;;;6.40;99.90;;;;;;4994742;28;20193;-79
2021/10/20 05:49:31;;;;;;;14.90;11.80;;;6.40;99.90;;;;;;4995662;28;20210;-80
2021/10/20 05:51:58;;;;;;;13.97;10.67;;;6.40;99.90;;;;;;4995786;28;20607;-79
2021/10/20 05:54:24;;;;;;;16.70;10.00;;;6.50;99.90;;;;;;4995198;28;20206;-80
2021/10/20 05:56:49;;;;;;;10.07;9.00;;;6.40;99.90;;;;;;4995804;28;20246;-79
2021/10/20 05:59:20;;;;;;;13.60;9.00;;;6.40;99.90;;;;;;4996084;28;20265;-80
2021/10/20 06:01:47;;;;;;;10.27;8.80;;;6.40;99.90;;;;;;4996332;28;20179;-80
2021/10/20 06:04:12;;;;;;;10.23;8.57;;;6.40;99.90;;;;;;4997020;28;20220;-80
2021/10/20 06:06:38;;;;;;;31.47;8.53;;;6.40;99.90;;;;;;4999322;28;20176;-79
2021/10/20 06:09:04;;;;;;;8.87;7.97;;;6.40;99.90;;;;;;4999935;28;20174;-80
2021/10/20 06:11:29;;;;;;;10.70;7.73;;;6.30;99.90;;;;;;4998270;28;20594;-80
2021/10/20 06:13:55;;;;;;;11.20;9.07;;;6.30;99.90;;;;;;5000153;28;20616;-80
2021/10/20 06:16:21;;;;;;;8.83;7.93;;;6.30;99.90;;;;;;4999589;28;20658;-80
2021/10/20 06:18:46;;;;;;;10.57;7.40;;;6.40;99.90;;;;;;4998611;28;20199;-80
2021/10/20 06:21:12;;;;;;;13.20;7.40;;;6.30;99.90;;;;;;4997853;28;20191;-80
2021/10/20 06:23:38;;;;;;;7.53;6.73;;;6.30;99.90;;;;;;4998168;28;20198;-80
2021/10/20 06:26:03;;;;;;;9.77;7.30;;;6.40;99.90;;;;;;5000019;28;20174;-80
2021/10/20 06:28:29;;;;;;;12.20;7.80;;;6.30;99.90;;;;;;4999834;28;20225;-80
2021/10/20 06:30:55;;;;;;;8.77;6.53;;;6.30;99.90;;;;;;4998340;28;20237;-80
2021/10/20 06:33:20;;;;;;;9.10;8.20;;;6.30;99.90;;;;;;4998167;28;20208;-78
2021/10/20 06:35:46;;;;;;;10.37;8.80;;;6.30;99.90;;;;;;4998427;28;20190;-79
2021/10/20 06:38:12;;;;;;;8.00;7.40;;;6.30;99.90;;;;;;4997132;28;20369;-80
2021/10/20 06:40:37;;;;;;;8.37;7.67;;;6.30;99.90;;;;;;4999020;28;20183;-80
2021/10/20 06:43:03;;;;;;;9.17;8.37;;;6.40;99.90;;;;;;5000626;28;20308;-80
2021/10/20 06:45:29;;;;;;;8.40;7.70;;;6.40;99.90;;;;;;4998569;28;20195;-80
2021/10/20 06:47:55;;;;;;;6.90;6.30;;;6.40;99.90;;;;;;4999135;28;20249;-80
2021/10/20 06:50:21;;;;;;;6.67;6.17;;;6.40;99.90;;;;;;4999322;28;20185;-80
2021/10/20 06:52:47;;;;;;;7.03;6.43;;;6.40;99.90;;;;;;5000430;28;20209;-80
2021/10/20 06:55:13;;;;;;;7.90;7.10;;;6.40;99.90;;;;;;4999132;28;20682;-80
2021/10/20 06:57:42;;;;;;;6.80;6.30;;;6.40;99.90;;;;;;4997638;28;20199;-80
2021/10/20 07:00:09;;;;;;;6.60;6.07;;;6.40;99.90;;;;;;4998754;28;20179;-80
2021/10/20 07:02:36;;;;;;;7.63;6.93;;;6.40;99.90;;;;;;4998170;28;20637;-80
2021/10/20 07:05:04;;;;;;;8.80;8.10;;;6.50;99.90;;;;;;4996828;28;20210;-80
2021/10/20 07:07:29;;;;;;;8.47;7.67;;;6.50;99.90;;;;;;4995910;28;20182;-80
2021/10/20 07:09:55;;;;;;;7.57;6.87;;;6.60;99.90;;;;;;4998119;28;20601;-80
2021/10/20 07:12:21;;;;;;;7.30;6.70;;;6.70;99.90;;;;;;4998662;28;20183;-80
2021/10/20 07:14:47;;;;;;;6.70;6.20;;;6.70;99.90;;;;;;4997922;28;20200;-80
2021/10/20 07:17:12;;;;;;;6.57;6.07;;;6.70;99.90;;;;;;4998037;28;20166;-80
2021/10/20 07:19:38;;;;;;;7.20;6.50;;;6.80;99.90;;;;;;4997532;28;20250;-80
2021/10/20 07:22:08;;;;;;;7.27;6.67;;;6.80;99.90;;;;;;4997668;28;20175;-80
2021/10/20 07:24:35;;;;;;;6.57;6.10;;;6.80;99.90;;;;;;4997604;28;20239;-79
2021/10/20 07:27:01;;;;;;;6.80;6.30;;;6.90;99.90;;;;;;4997124;28;20624;-80
2021/10/20 07:29:27;;;;;;;7.77;7.17;;;7.00;99.90;;;;;;4998935;28;20167;-80
2021/10/20 07:31:53;;;;;;;7.07;6.47;;;6.90;99.90;;;;;;4999347;28;20654;-80
2021/10/20 07:34:18;;;;;;;7.87;7.07;;;7.00;99.90;;;;;;4998021;28;20216;-80
2021/10/20 07:36:44;;;;;;;8.60;7.80;;;7.10;99.90;;;;;;5001027;28;20707;-80
2021/10/20 07:39:12;;;;;;;8.20;7.40;;;7.20;99.90;;;;;;4998382;28;20210;-80
2021/10/20 07:41:38;;;;;;;7.57;6.97;;;7.20;99.90;;;;;;5000428;28;20696;-78
2021/10/20 07:44:05;;;;;;;12.13;9.57;;;7.40;99.90;;;;;;4999922;28;20208;-80
2021/10/20 07:46:32;;;;;;;11.30;9.30;;;7.40;99.90;;;;;;4998784;28;20258;-81
2021/10/20 07:48:57;;;;;;;10.30;9.30;;;7.50;99.90;;;;;;4999213;28;20187;-81
2021/10/20 07:51:23;;;;;;;12.80;9.00;;;7.60;99.90;;;;;;4998071;28;20184;-80
2021/10/20 07:53:49;;;;;;;10.13;9.20;;;7.70;99.90;;;;;;4999525;28;20275;-80
2021/10/20 07:56:15;;;;;;;10.97;8.43;;;7.80;99.90;;;;;;4998303;28;20183;-80
2021/10/20 07:58:41;;;;;;;10.03;9.23;;;7.90;99.90;;;;;;4999541;28;20540;-81
2021/10/20 08:01:07;;;;;;;9.90;9.10;;;8.00;99.90;;;;;;4998762;28;20183;-80
2021/10/20 08:03:32;;;;;;;8.80;8.00;;;8.10;99.90;;;;;;4997228;28;20226;-81
2021/10/20 08:05:58;;;;;;;11.17;9.27;;;8.20;99.90;;;;;;4997760;28;20172;-80
2021/10/20 08:08:23;;;;;;;11.50;10.30;;;8.30;99.90;;;;;;4997522;28;20240;-80
2021/10/20 08:10:49;;;;;;;12.00;10.33;;;8.40;99.90;;;;;;4997669;28;20172;-80
2021/10/20 08:13:15;;;;;;;18.53;13.10;;;8.50;99.90;;;;;;4998855;28;20175;-80
2021/10/20 08:15:42;;;;;;;16.60;12.70;;;8.60;99.90;;;;;;4998505;28;20654;-81
2021/10/20 08:18:08;;;;;;;21.43;13.87;;;8.70;99.90;;;;;;4999479;28;20195;-80
2021/10/20 08:20:35;;;;;;;17.07;12.93;;;8.70;99.90;;;;;;4995635;28;20184;-80
2021/10/20 08:23:04;;;;;;;23.27;13.33;;;8.80;99.90;;;;;;4999016;28;20173;-80
2021/10/20 08:25:30;;;;;;;15.00;11.60;;;8.90;99.90;;;;;;4998089;28;20175;-80
2021/10/20 08:27:56;;;;;;;25.33;12.07;;;9.00;99.90;;;;;;4993677;28;20670;-81
2021/10/20 08:30:22;;;;;;;13.87;12.07;;;9.20;99.90;;;;;;4984184;28;20188;-80
2021/10/20 08:32:51;;;;;;;16.00;12.07;;;9.40;99.90;;;;;;4993106;28;20190;-81
2021/10/20 08:35:18;;;;;;;13.57;11.57;;;9.40;99.90;;;;;;4993944;28;20215;-80
2021/10/20 08:37:45;;;;;;;15.57;11.40;;;9.60;99.90;;;;;;4992432;28;20692;-80
2021/10/20 08:40:13;;;;;;;13.77;11.23;;;9.70;99.90;;;;;;4990296;28;20263;-80
2021/10/20 08:42:40;;;;;;;13.67;11.00;;;9.90;99.90;;;;;;4993186;28;20172;-80
2021/10/20 08:45:08;;;;;;;12.97;11.27;;;10.00;99.90;;;;;;4987377;28;20342;-80
2021/10/20 08:47:35;;;;;;;12.50;11.07;;;10.20;99.90;;;;;;4985539;28;20181;-80
2021/10/20 08:50:07;;;;;;;11.73;10.60;;;10.20;99.90;;;;;;4990906;28;20238;-80
2021/10/20 08:52:33;;;;;;;11.40;9.20;;;10.40;99.90;;;;;;5009068;28;20208;-80
2021/10/20 08:55:01;;;;;;;9.00;8.17;;;10.60;99.90;;;;;;4994998;28;20577;-80
2021/10/20 08:57:27;;;;;;;9.67;8.70;;;10.80;99.90;;;;;;4986497;28;20207;-81
2021/10/20 08:59:53;;;;;;;10.40;9.27;;;;;;;;;;4988984;28;20182;-80
2021/10/20 09:02:22;;;;;;;11.53;8.50;;;11.20;99.90;;;;;;4992414;28;20609;-80
2021/10/20 09:04:54;;;;;;;9.53;8.63;;;11.30;99.90;;;;;;4996796;28;20609;-80
2021/10/20 09:07:20;;;;;;;9.30;8.33;;;11.40;99.90;;;;;;4994814;28;20175;-81
2021/10/20 09:09:51;;;;;;;9.43;8.53;;;11.60;99.90;;;;;;4994891;28;20193;-80
2021/10/20 09:12:25;;;;;;;9.17;8.27;;;11.60;99.90;;;;;;4996167;28;20172;-80
2021/10/20 09:14:55;;;;;;;9.30;8.40;;;11.70;99.90;;;;;;4995073;28;20281;-80
2021/10/20 09:17:21;;;;;;;10.10;8.40;;;11.80;99.90;;;;;;4995010;28;20184;-80
2021/10/20 09:19:46;;;;;;;8.70;7.80;;;11.90;99.90;;;;;;4993612;28;20213;-80
2021/10/20 09:22:12;;;;;;;13.53;7.80;;;11.90;99.90;;;;;;4995091;28;20174;-80
2021/10/20 09:24:44;;;;;;;9.13;7.90;;;12.20;99.90;;;;;;4994748;28;20202;-80
2021/10/20 09:27:26;;;;;;;8.50;7.47;;;12.20;99.90;;;;;;4996241;28;20188;-80
2021/10/20 09:30:12;;;;;;;9.37;6.47;;;12.50;99.90;;;;;;4995025;28;20326;-80
2021/10/20 09:32:38;;;;;;;6.80;6.20;;;12.60;99.90;;;;;;4995089;28;20182;-80
2021/10/20 09:35:04;;;;;;;6.40;5.80;;;12.90;99.90;;;;;;4994286;28;20215;-80
2021/10/20 09:37:30;;;;;;;6.57;6.07;;;;;;;;;;4993620;28;20231;-80
2021/10/20 09:40:04;;;;;;;6.73;6.00;;;13.30;99.90;;;;;;4998693;28;20530;-80
2021/10/20 09:42:41;;;;;;;6.53;5.87;;;13.60;99.90;;;;;;4998211;28;20246;-80
2021/10/20 09:45:07;;;;;;;6.40;5.80;;;13.60;99.90;;;;;;4996814;28;20198;-81
2021/10/20 09:47:33;;;;;;;7.00;6.00;;;13.60;99.90;;;;;;4998700;28;20175;-80
2021/10/20 09:49:58;;;;;;;7.20;6.17;;;13.70;99.90;;;;;;4998538;28;20172;-80
2021/10/20 09:52:51;;;;;;;6.53;5.90;;;13.70;99.90;;;;;;5000013;28;20594;-80
2021/10/20 09:55:31;;;;;;;6.43;5.70;;;13.80;99.90;;;;;;4992244;28;20203;-80
2021/10/20 09:58:14;;;;;;;6.13;5.03;;;13.90;99.90;;;;;;5000380;28;20302;-80
2021/10/20 10:00:41;;;;;;;7.33;4.60;;;14.00;99.90;;;;;;4999595;28;20170;-81
2021/10/20 10:03:08;;;;;;;7.73;5.33;;;14.10;99.90;;;;;;5000612;28;20214;-81
2021/10/20 10:05:34;;;;;;;6.00;5.23;;;14.20;99.90;;;;;;5001635;28;20166;-82
2021/10/20 10:08:00;;;;;;;5.37;4.47;;;14.50;99.90;;;;;;5001986;28;20187;-81
2021/10/20 10:10:26;;;;;;;7.10;4.47;;;14.60;99.90;;;;;;5001494;28;20177;-81
2021/10/20 10:13:06;;;;;;;6.40;4.20;;;14.80;99.90;;;;;;4989692;28;20263;-81
2021/10/20 10:15:37;;;;;;;4.87;4.17;;;14.80;99.90;;;;;;4995711;28;20171;-81
2021/10/20 10:18:04;;;;;;;6.43;4.33;;;14.90;99.90;;;;;;4996494;28;20225;-81
2021/10/20 10:20:36;;;;;;;5.47;3.47;;;14.90;99.90;;;;;;5000391;28;20179;-81
2021/10/20 10:23:06;;;;;;;3.70;3.23;;;15.00;99.90;;;;;;4994671;28;20172;-81
2021/10/20 10:25:41;;;;;;;6.10;3.40;;;15.30;99.90;;;;;;4998205;28;20199;-81
2021/10/20 10:28:17;;;;;;;4.70;3.27;;;15.40;99.90;;;;;;4998173;28;20210;-81
2021/10/20 10:31:05;;;;;;;4.10;2.93;;;15.40;99.90;;;;;;4994415;28;20176;-81
2021/10/20 10:33:33;;;;;;;3.43;3.07;;;15.50;99.90;;;;;;4996514;28;20207;-81
2021/10/20 10:36:05;;;;;;;3.27;2.87;;;15.60;99.90;;;;;;4999319;28;20180;-81
2021/10/20 10:38:43;;;;;;;3.53;2.93;;;15.70;99.90;;;;;;4993946;28;20263;-81
2021/10/20 10:41:28;;;;;;;4.30;3.13;;;15.90;99.90;;;;;;4996339;28;20231;-81
2021/10/20 10:44:04;;;;;;;3.17;2.87;;;16.10;99.90;;;;;;4993611;28;20985;-81
2021/10/20 10:46:45;;;;;;;2.80;2.60;;;16.30;99.90;;;;;;4996130;28;20541;-81
2021/10/20 10:49:36;;;;;;;5.00;2.63;;;16.50;99.90;;;;;;4993318;28;20685;-82
2021/10/20 10:52:18;;;;;;;4.27;2.60;;;16.60;99.90;;;;;;4999630;28;20240;-82
2021/10/20 10:54:58;;;;;;;3.93;2.27;;;16.80;99.90;;;;;;4994911;28;20200;-81
2021/10/20 10:57:35;;;;;;;5.07;2.53;;;16.90;99.90;;;;;;4993516;28;20669;-81
2021/10/20 11:00:18;;;;;;;5.63;3.10;;;17.10;99.90;;;;;;5000650;28;20160;-82
2021/10/20 11:02:49;;;;;;;7.63;3.60;;;17.20;99.90;;;;;;4995553;28;20180;-80
2021/10/20 11:05:16;;;;;;;3.50;2.67;;;17.20;99.90;;;;;;4999748;28;20194;-82
2021/10/20 11:07:46;;;;;;;6.60;2.50;;;17.20;99.90;;;;;;4995886;28;20194;-82
2021/10/20 11:10:14;;;;;;;5.43;2.90;;;17.30;99.90;;;;;;4998000;28;20186;-82
2021/10/20 11:12:40;;;;;;;2.53;2.33;;;17.40;99.90;;;;;;4997777;28;20202;-81
2021/10/20 11:15:10;;;;;;;3.97;2.20;;;17.50;99.90;;;;;;4994541;28;20205;-82
2021/10/20 11:17:36;;;;;;;3.27;2.37;;;17.60;99.90;;;;;;4994303;28;20210;-82
2021/10/20 11:20:13;;;;;;;3.37;2.33;;;17.70;99.90;;;;;;4997297;28;20182;-82
2021/10/20 11:22:43;;;;;;;2.73;2.50;;;17.80;99.90;;;;;;4993953;28;20182;-82
2021/10/20 11:25:11;;;;;;;5.43;2.40;;;17.80;99.90;;;;;;4993001;28;20667;-81
2021/10/20 11:27:38;;;;;;;4.37;2.73;;;17.80;99.90;;;;;;4997043;28;20185;-81
2021/10/20 11:30:04;;;;;;;4.03;2.43;;;;;;;;;;4996672;28;20216;-81
2021/10/20 11:32:30;;;;;;;2.50;2.30;;;17.90;99.90;;;;;;4992727;28;20201;-81
2021/10/20 11:34:56;;;;;;;3.57;2.57;;;18.00;99.90;;;;;;4992777;28;20230;-81
2021/10/20 11:37:23;;;;;;;2.30;2.10;;;18.10;99.90;;;;;;4992696;28;20221;-82
2021/10/20 11:39:52;;;;;;;2.93;2.10;;;18.20;99.90;;;;;;4991586;28;20656;-81
2021/10/20 11:42:18;;;;;;;5.83;2.20;;;18.30;99.90;;;;;;4997438;28;20213;-82
2021/10/20 11:44:44;;;;;;;3.67;2.07;;;18.20;99.90;;;;;;4998095;28;20198;-82
2021/10/20 11:47:11;;;;;;;4.40;2.50;;;18.40;99.90;;;;;;4997336;28;20176;-81
2021/10/20 11:49:52;;;;;;;4.83;2.00;;;18.40;99.90;;;;;;4988812;28;20653;-81
2021/10/20 11:52:21;;;;;;;2.90;1.90;;;18.40;99.90;;;;;;4993470;28;20182;-82
2021/10/20 11:54:47;;;;;;;5.23;2.47;;;18.50;99.90;;;;;;4992595;28;20363;-82
2021/10/20 11:57:18;;;;;;;2.17;1.97;;;18.50;99.90;;;;;;4989623;28;20265;-82
2021/10/20 11:59:44;;;;;;;4.67;2.00;;;18.50;99.90;;;;;;4989792;28;20200;-82
2021/10/20 12:02:12;;;;;;;4.40;1.77;;;18.50;99.90;;;;;;4988605;28;20202;-82
2021/10/20 12:04:39;;;;;;;4.50;2.03;;;18.60;99.90;;;;;;4995066;28;20221;-82
2021/10/20 12:07:06;;;;;;;4.10;2.00;;;18.70;99.90;;;;;;4986927;28;20217;-82
2021/10/20 12:09:37;;;;;;;3.57;1.90;;;18.80;99.90;;;;;;4994415;28;20598;-82
2021/10/20 12:12:05;;;;;;;3.37;2.10;;;18.80;99.90;;;;;;4990867;28;20182;-82
2021/10/20 12:14:33;;;;;;;8.60;2.37;;;18.90;99.90;;;;;;4992639;28;20216;-82
2021/10/20 12:17:03;;;;;;;4.27;2.10;;;18.90;99.90;;;;;;4990789;28;20261;-81
2021/10/20 12:19:33;;;;;;;3.47;1.90;;;18.90;99.90;;;;;;4991211;28;20693;-82
2021/10/20 12:22:05;;;;;;;3.57;2.00;;;18.80;99.90;;;;;;4983686;28;20194;-82
2021/10/20 12:24:47;;;;;;;2.13;1.93;;;18.80;99.90;;;;;;4996579;28;20191;-81
2021/10/20 12:27:14;;;;;;;2.10;1.90;;;18.80;99.90;;;;;;4994766;28;20178;-80
2021/10/20 12:29:44;;;;;;;4.20;2.20;;;18.80;99.90;;;;;;4994459;28;20182;-82
2021/10/20 12:32:25;;;;;;;4.17;2.30;;;18.90;99.90;;;;;;4991942;28;20588;-81
2021/10/20 12:34:58;;;;;;;1.80;1.70;;;19.00;99.90;;;;;;4991262;28;20222;-81
2021/10/20 12:37:36;;;;;;;4.43;1.87;;;19.00;99.90;;;;;;4992135;28;20190;-83
2021/10/20 12:40:14;;;;;;;4.20;2.10;;;19.10;99.90;;;;;;4990248;28;20638;-82
2021/10/20 12:42:50;;;;;;;3.47;1.80;;;19.20;99.90;;;;;;4994714;28;20175;-82
2021/10/20 12:45:16;;;;;;;2.70;1.70;;;19.20;99.90;;;;;;4997419;28;20202;-81
2021/10/20 12:47:46;;;;;;;4.47;2.23;;;19.20;99.90;;;;;;4993311;28;20183;-82
2021/10/20 12:50:13;;;;;;;4.93;2.10;;;19.20;99.90;;;;;;4996998;28;20213;-80
2021/10/20 12:52:40;;;;;;;3.53;1.97;;;19.20;99.90;;;;;;4993299;28;20238;-81